Time;durP1;ratioP1;P1;durP2;ratioP2;P2;SDS_P1;SDS_P2;PMS_P1;PMS_P2;Temp;Humidity;BMP_temperature;BMP_pressure;BME280_temperature;BME280_humidity;BME280_pressure;Samples;Min_cycle;Max_cycle;Signal;HPM_P1;HPM_P2
2022/10/23 00:01:32;;;;;;;6.50;2.75;;;;;;;-145.48;100.00;64539.38;6335003;28;20036;-90
2022/10/23 00:04:34;;;;;;;4.68;2.75;;;;;;;-145.48;100.00;64539.38;6239808;28;20065;-89
2022/10/23 00:07:36;;;;;;;4.97;2.88;;;;;;;-145.48;100.00;64539.38;6243041;28;20049;-90
2022/10/23 00:10:41;;;;;;;5.20;2.55;;;;;;;-145.48;100.00;64539.38;6262003;28;20082;-89
2022/10/23 00:13:44;;;;;;;4.43;2.50;;;;;;;-145.48;100.00;64539.38;6259429;28;20061;-90
2022/10/23 00:16:46;;;;;;;3.47;2.45;;;;;;;-145.48;100.00;64539.38;6257226;28;20083;-89
2022/10/23 00:19:48;;;;;;;5.18;2.58;;;;;;;-145.48;100.00;64539.38;6250289;28;20052;-89
2022/10/23 00:22:50;;;;;;;5.15;2.58;;;;;;;-145.48;100.00;64539.38;6260073;28;20052;-89
2022/10/23 00:25:52;;;;;;;6.80;2.72;;;;;;;-145.48;100.00;64539.38;6260909;28;20050;-89
2022/10/23 00:28:54;;;;;;;4.90;2.80;;;;;;;-145.48;100.00;64539.38;6244706;28;20134;-90
2022/10/23 00:31:56;;;;;;;4.75;2.72;;;;;;;-145.48;100.00;64539.38;6261278;28;20045;-90
2022/10/23 00:34:58;;;;;;;4.40;2.60;;;;;;;-145.48;100.00;64539.38;6260436;28;20489;-90
2022/10/23 00:38:00;;;;;;;6.32;3.17;;;;;;;-145.48;100.00;64539.38;6237847;28;20110;-89
2022/10/23 00:41:03;;;;;;;5.35;2.50;;;;;;;-145.48;100.00;64539.38;6311558;27;20051;-90
2022/10/23 00:44:20;;;;;;;7.03;2.70;;;;;;;-145.48;100.00;64539.38;6326162;28;20036;-90
2022/10/23 00:47:21;;;;;;;6.57;2.80;;;;;;;-145.48;100.00;64539.38;6330636;28;20044;-90
2022/10/23 00:50:25;;;;;;;4.90;2.35;;;;;;;-145.48;100.00;64539.38;6333640;28;20055;-90
2022/10/23 00:53:27;;;;;;;4.60;2.60;;;;;;;-145.48;100.00;64539.38;6335711;28;20068;-89
2022/10/23 00:56:30;;;;;;;5.10;2.60;;;;;;;-145.48;100.00;64539.38;6338691;28;20425;-90
2022/10/23 00:59:33;;;;;;;5.45;2.50;;;;;;;-145.48;100.00;64539.38;6335773;28;20413;-90
2022/10/23 01:02:34;;;;;;;4.72;2.50;;;;;;;-145.48;100.00;64539.38;6331226;28;20039;-90
2022/10/23 01:06:12;;;;;;;5.68;2.80;;;;;;;-145.48;100.00;64539.38;6338657;28;20036;-89
2022/10/23 01:09:32;;;;;;;5.68;2.53;;;;;;;-145.48;100.00;64539.38;6314841;28;20047;-89
2022/10/23 01:12:49;;;;;;;7.15;2.50;;;;;;;-145.48;100.00;64539.38;6352959;27;20047;-90
2022/10/23 01:16:15;;;;;;;7.18;2.75;;;;;;;-145.48;100.00;64539.38;6324657;28;20110;-89
2022/10/23 01:20:08;;;;;;;3.65;2.30;;;;;;;-145.48;100.00;64539.38;6326684;28;20151;-89
2022/10/23 01:23:32;;;;;;;5.82;2.70;;;;;;;-145.48;100.00;64539.38;6261215;28;20040;-90
2022/10/23 01:27:00;;;;;;;4.50;2.50;;;;;;;-145.48;100.00;64539.38;6243671;28;20048;-89
2022/10/23 01:30:06;;;;;;;6.50;2.40;;;;;;;-145.48;100.00;64539.38;6267813;28;20045;-89
2022/10/23 01:33:27;;;;;;;4.28;2.47;;;;;;;-145.48;100.00;64539.38;6263491;28;20056;-90
2022/10/23 01:36:31;;;;;;;5.35;2.53;;;;;;;-145.48;100.00;64539.38;6264973;28;20391;-90
2022/10/23 01:39:37;;;;;;;6.22;2.78;;;;;;;-145.48;100.00;64539.38;6268821;28;20051;-89
2022/10/23 01:42:46;;;;;;;4.68;2.45;;;;;;;-145.48;100.00;64539.38;6267480;28;20040;-90
2022/10/23 01:45:54;;;;;;;4.22;2.90;;;;;;;-145.48;100.00;64539.38;6284181;28;20051;-90
2022/10/23 01:48:59;;;;;;;4.38;2.78;;;;;;;-145.48;100.00;64539.38;6251325;28;20147;-90
2022/10/23 01:52:06;;;;;;;5.05;2.88;;;;;;;-145.48;100.00;64539.38;6282523;28;20192;-89
2022/10/23 01:55:11;;;;;;;4.78;2.83;;;;;;;-145.48;100.00;64539.38;6335956;28;20051;-90
2022/10/23 01:58:15;;;;;;;6.53;2.67;;;;;;;-145.48;100.00;64539.38;6326662;28;20098;-90
2022/10/23 02:01:21;;;;;;;5.90;2.90;;;;;;;-145.48;100.00;64539.38;6326586;28;20413;-89
2022/10/23 02:04:32;;;;;;;8.98;2.42;;;;;;;-145.48;100.00;64539.38;6335392;28;20043;-90
2022/10/23 02:07:35;;;;;;;2.97;2.50;;;;;;;-145.48;100.00;64539.38;6337915;28;20043;-90
2022/10/23 02:10:41;;;;;;;5.18;2.78;;;;;;;-145.48;100.00;64539.38;6336224;28;20044;-90
2022/10/23 02:14:01;;;;;;;7.43;2.90;;;;;;;-145.48;100.00;64539.38;6335430;28;20709;-90
2022/10/23 02:17:15;;;;;;;;;;;;;;;-145.48;100.00;64539.38;6336676;28;20035;-89
2022/10/23 02:20:39;;;;;;;8.32;2.80;;;;;;;-145.48;100.00;64539.38;6299636;28;19997;-90
2022/10/23 02:24:04;;;;;;;6.05;2.58;;;;;;;-145.48;100.00;64539.38;6348922;27;20494;-89
2022/10/23 02:27:15;;;;;;;5.72;2.85;;;;;;;-145.48;100.00;64539.38;6317723;28;20051;-89
2022/10/23 02:30:19;;;;;;;6.07;2.90;;;;;;;-145.48;100.00;64539.38;6332493;28;20055;-89
2022/10/23 02:33:43;;;;;;;5.05;2.65;;;;;;;-145.48;100.00;64539.38;6334266;28;20127;-89
2022/10/23 02:36:45;;;;;;;5.60;2.90;;;;;;;-145.48;100.00;64539.38;6337516;28;20569;-90
2022/10/23 02:39:48;;;;;;;6.90;2.78;;;;;;;-145.48;100.00;64539.38;6333973;28;20489;-90
2022/10/23 02:43:02;;;;;;;4.20;2.90;;;;;;;-145.48;100.00;64539.38;6319583;28;20050;-90
2022/10/23 02:46:10;;;;;;;4.88;3.22;;;;;;;-145.48;100.00;64539.38;6337622;28;20055;-89
2022/10/23 02:49:26;;;;;;;5.47;2.65;;;;;;;-145.48;100.00;64539.38;6338029;28;20177;-90
2022/10/23 02:52:56;;;;;;;4.95;2.90;;;;;;;-145.48;100.00;64539.38;6349268;27;20047;-90
2022/10/23 02:56:21;;;;;;;4.53;2.80;;;;;;;-145.48;100.00;64539.38;6336190;28;20091;-90
2022/10/23 02:59:32;;;;;;;9.48;3.13;;;;;;;-145.48;100.00;64539.38;6337380;28;20172;-90
2022/10/23 03:02:43;;;;;;;6.95;2.65;;;;;;;-145.48;100.00;64539.38;6323957;28;20061;-89
2022/10/23 03:05:47;;;;;;;7.65;2.80;;;;;;;-145.48;100.00;64539.38;6318617;28;20038;-90
2022/10/23 03:09:02;;;;;;;4.55;3.20;;;;;;;-145.48;100.00;64539.38;6333561;28;20054;-89
2022/10/23 03:12:05;;;;;;;7.00;3.22;;;;;;;-145.48;100.00;64539.38;6333202;28;20520;-90
2022/10/23 03:15:11;;;;;;;6.75;3.28;;;;;;;-145.48;100.00;64539.38;6335026;28;20047;-90
2022/10/23 03:18:13;;;;;;;4.47;3.00;;;;;;;-145.48;100.00;64539.38;6335215;28;20429;-89
2022/10/23 03:21:20;;;;;;;4.50;2.90;;;;;;;-145.48;100.00;64539.38;6331007;28;20449;-89
2022/10/23 03:24:27;;;;;;;5.40;2.67;;;;;;;-145.48;100.00;64539.38;6333023;28;20379;-89
2022/10/23 03:27:29;;;;;;;5.65;2.85;;;;;;;-145.48;100.00;64539.38;6320206;28;20070;-89
2022/10/23 03:30:36;;;;;;;8.88;3.10;;;;;;;-145.48;100.00;64539.38;6332388;28;20055;-89
2022/10/23 03:33:38;;;;;;;7.10;3.17;;;;;;;-145.48;100.00;64539.38;6323711;28;20047;-89
2022/10/23 03:36:42;;;;;;;4.68;3.00;;;;;;;-145.48;100.00;64539.38;6320539;28;20550;-89
2022/10/23 03:39:44;;;;;;;5.35;3.20;;;;;;;-145.48;100.00;64539.38;6310520;28;20046;-89
2022/10/23 03:42:46;;;;;;;6.57;3.40;;;;;;;-145.48;100.00;64539.38;6330935;28;20028;-89
2022/10/23 03:45:52;;;;;;;6.45;2.90;;;;;;;-145.48;100.00;64539.38;6330017;28;20544;-89
2022/10/23 03:48:57;;;;;;;6.22;3.00;;;;;;;-145.48;100.00;64539.38;6331515;28;20689;-90
2022/10/23 03:51:59;;;;;;;5.05;2.90;;;;;;;-145.48;100.00;64539.38;6334510;28;20192;-89
2022/10/23 03:55:01;;;;;;;5.70;3.10;;;;;;;-145.48;100.00;64539.38;6334703;28;20036;-89
2022/10/23 03:58:03;;;;;;;5.25;2.97;;;;;;;-145.48;100.00;64539.38;6334593;28;20382;-89
2022/10/23 04:01:05;;;;;;;4.88;3.15;;;;;;;-145.48;100.00;64539.38;6337823;28;20043;-89
2022/10/23 04:04:09;;;;;;;7.97;2.90;;;;;;;-145.48;100.00;64539.38;6335707;28;20032;-89
2022/10/23 04:07:11;;;;;;;6.30;2.75;;;;;;;-145.48;100.00;64539.38;6317560;28;20044;-89
2022/10/23 04:10:12;;;;;;;7.50;3.08;;;;;;;-145.48;100.00;64539.38;6325769;28;20058;-89
2022/10/23 04:13:14;;;;;;;5.78;3.13;;;;;;;-145.48;100.00;64539.38;6325776;28;20048;-89
2022/10/23 04:16:16;;;;;;;5.72;2.97;;;;;;;-145.48;100.00;64539.38;6334633;28;20512;-89
2022/10/23 04:19:18;;;;;;;5.35;2.88;;;;;;;-145.48;100.00;64539.38;6324556;28;20062;-89
2022/10/23 04:22:20;;;;;;;5.57;2.80;;;;;;;-145.48;100.00;64539.38;6328748;28;20404;-89
2022/10/23 04:25:28;;;;;;;3.97;2.40;;;;;;;-145.48;100.00;64539.38;6337031;28;20079;-90
2022/10/23 04:28:30;;;;;;;4.93;3.38;;;;;;;-145.48;100.00;64539.38;6323342;28;20050;-90
2022/10/23 04:31:32;;;;;;;5.85;2.80;;;;;;;-145.48;100.00;64539.38;6339001;28;20508;-90
2022/10/23 04:34:34;;;;;;;4.65;2.83;;;;;;;-145.48;100.00;64539.38;6341437;28;20100;-90
2022/10/23 04:37:37;;;;;;;6.60;2.63;;;;;;;-145.48;100.00;64539.38;6339183;28;20073;-90
2022/10/23 04:40:40;;;;;;;5.63;2.78;;;;;;;-145.48;100.00;64539.38;6330239;28;20122;-89
2022/10/23 04:43:42;;;;;;;5.32;2.60;;;;;;;-145.48;100.00;64539.38;6340361;28;20594;-89
2022/10/23 04:46:43;;;;;;;8.15;2.80;;;;;;;-145.48;100.00;64539.38;6340923;28;20050;-89
2022/10/23 04:49:46;;;;;;;3.47;2.35;;;;;;;-145.48;100.00;64539.38;6338767;28;20401;-89
2022/10/23 04:53:08;;;;;;;7.93;2.95;;;;;;;-145.48;100.00;64539.38;6337240;28;20071;-90
2022/10/23 04:56:30;;;;;;;4.50;2.63;;;;;;;-145.48;100.00;64539.38;6339352;28;20561;-89
2022/10/23 04:59:36;;;;;;;5.60;2.90;;;;;;;-145.48;100.00;64539.38;6334770;28;20043;-89
2022/10/23 05:02:38;;;;;;;6.35;2.67;;;;;;;-145.48;100.00;64539.38;6336999;28;20071;-89
2022/10/23 05:05:41;;;;;;;6.03;2.85;;;;;;;-145.48;100.00;64539.38;6339257;28;20556;-90
2022/10/23 05:09:15;;;;;;;5.93;2.78;;;;;;;-145.48;100.00;64539.38;6285497;28;20147;-89
2022/10/23 05:12:39;;;;;;;4.53;2.47;;;;;;;-145.48;100.00;64539.38;6286580;28;20097;-89
2022/10/23 05:15:41;;;;;;;4.60;2.65;;;;;;;-145.48;100.00;64539.38;6288453;28;20149;-89
2022/10/23 05:18:51;;;;;;;3.25;2.28;;;;;;;-145.48;100.00;64539.38;6284984;28;20044;-89
2022/10/23 05:21:54;;;;;;;3.65;2.50;;;;;;;-145.48;100.00;64539.38;6279681;28;20052;-89
2022/10/23 05:25:01;;;;;;;5.07;2.97;;;;;;;-145.48;100.00;64539.38;6268326;28;20040;-89
2022/10/23 05:28:05;;;;;;;5.45;2.53;;;;;;;-145.48;100.00;64539.38;6280541;28;20395;-89
2022/10/23 05:31:08;;;;;;;7.70;2.53;;;;;;;-145.48;100.00;64539.38;6239888;28;20097;-89
2022/10/23 05:34:15;;;;;;;5.93;2.60;;;;;;;-145.48;100.00;64539.38;6283881;28;20472;-89
2022/10/23 05:37:18;;;;;;;4.32;2.70;;;;;;;-145.48;100.00;64539.38;6285329;28;20059;-89
2022/10/23 05:40:20;;;;;;;5.50;2.97;;;;;;;-145.48;100.00;64539.38;6293217;28;20199;-89
2022/10/23 05:43:29;;;;;;;7.68;2.58;;;;;;;-145.48;100.00;64539.38;6280878;28;20059;-89
2022/10/23 05:46:40;;;;;;;3.15;2.47;;;;;;;-145.48;100.00;64539.38;6332948;28;20047;-89
2022/10/23 05:49:59;;;;;;;7.82;2.70;;;;;;;-145.48;100.00;64539.38;6323283;28;20051;-89
2022/10/23 05:53:01;;;;;;;6.38;2.60;;;;;;;-145.48;100.00;64539.38;6338911;28;20445;-89
2022/10/23 05:56:23;;;;;;;6.20;2.70;;;;;;;-145.48;100.00;64539.38;6338753;28;20783;-89
2022/10/23 05:59:43;;;;;;;8.35;2.88;;;;;;;-145.48;100.00;64539.38;6337791;28;20474;-89
2022/10/23 06:03:17;;;;;;;5.30;2.45;;;;;;;-145.48;100.00;64539.38;6334963;28;20198;-89
2022/10/23 06:06:19;;;;;;;7.03;2.72;;;;;;;-145.48;100.00;64539.38;6336508;28;20040;-89
2022/10/23 06:09:23;;;;;;;4.78;2.53;;;;;;;-145.48;100.00;64539.38;6333622;28;20075;-89
2022/10/23 06:12:30;;;;;;;4.90;2.55;;;;;;;-145.48;100.00;64539.38;6335631;28;20044;-89
2022/10/23 06:15:34;;;;;;;4.20;2.33;;;;;;;-145.48;100.00;64539.38;6327084;28;20497;-89
2022/10/23 06:18:42;;;;;;;4.25;2.53;;;;;;;-145.48;100.00;64539.38;6331788;28;20063;-89
2022/10/23 06:21:48;;;;;;;4.65;2.67;;;;;;;-145.48;100.00;64539.38;6332132;28;20073;-89
2022/10/23 06:24:50;;;;;;;7.82;2.70;;;;;;;-145.48;100.00;64539.38;6338611;28;20678;-89
2022/10/23 06:28:00;;;;;;;3.42;2.25;;;;;;;-145.48;100.00;64539.38;6334165;28;20501;-89
2022/10/23 06:31:04;;;;;;;3.03;2.00;;;;;;;-145.48;100.00;64539.38;6336308;28;20420;-89
2022/10/23 06:34:09;;;;;;;4.22;2.45;;;;;;;-145.48;100.00;64539.38;6324793;28;20040;-89
2022/10/23 06:37:11;;;;;;;5.38;2.72;;;;;;;-145.48;100.00;64539.38;6324678;28;20038;-89
2022/10/23 06:40:19;;;;;;;6.07;2.63;;;;;;;-145.48;100.00;64539.38;6332795;28;20138;-89
2022/10/23 06:43:33;;;;;;;5.80;2.30;;;;;;;-145.48;100.00;64539.38;6327777;28;20040;-89
2022/10/23 06:46:50;;;;;;;6.97;2.50;;;;;;;-145.48;100.00;64539.38;6327725;28;20043;-89
2022/10/23 06:50:10;;;;;;;8.15;2.40;;;;;;;-145.48;100.00;64539.38;6335830;28;20130;-89
2022/10/23 06:53:17;;;;;;;4.53;2.38;;;;;;;-145.48;100.00;64539.38;6332108;28;20413;-89
2022/10/23 06:56:27;;;;;;;5.45;2.53;;;;;;;-145.48;100.00;64539.38;6332359;28;20062;-89
2022/10/23 06:59:30;;;;;;;5.35;2.75;;;;;;;-145.48;100.00;64539.38;6331869;28;20666;-89
2022/10/23 07:02:32;;;;;;;5.07;2.50;;;;;;;-145.48;100.00;64539.38;6332177;28;20177;-89
2022/10/23 07:05:34;;;;;;;3.63;2.17;;;;;;;-145.48;100.00;64539.38;6335516;28;20043;-89
2022/10/23 07:08:37;;;;;;;4.53;2.58;;;;;;;-145.48;100.00;64539.38;6336554;28;20509;-89
2022/10/23 07:11:57;;;;;;;4.88;2.88;;;;;;;-145.48;100.00;64539.38;6326279;28;20086;-89
2022/10/23 07:15:07;;;;;;;4.78;2.58;;;;;;;-145.48;100.00;64539.38;6327685;28;20512;-89
2022/10/23 07:18:13;;;;;;;4.40;2.58;;;;;;;-145.48;100.00;64539.38;6330275;28;20051;-89
2022/10/23 07:21:38;;;;;;;5.15;2.33;;;;;;;-145.48;100.00;64539.38;6334120;28;20434;-89
2022/10/23 07:24:53;;;;;;;4.72;2.58;;;;;;;-145.48;100.00;64539.38;6317232;28;20047;-89
2022/10/23 07:28:07;;;;;;;5.88;2.95;;;;;;;-145.48;100.00;64539.38;6332720;28;20048;-89
2022/10/23 07:31:10;;;;;;;7.60;3.00;;;;;;;-145.48;100.00;64539.38;6334784;28;20039;-90
2022/10/23 07:34:44;;;;;;;5.88;3.00;;;;;;;-145.48;100.00;64539.38;6273656;28;20136;-90
2022/10/23 07:38:12;;;;;;;5.10;2.47;;;;;;;-145.48;100.00;64539.38;6279111;28;20139;-90
2022/10/23 07:41:18;;;;;;;5.15;2.72;;;;;;;-145.48;100.00;64539.38;6255252;28;20064;-90
2022/10/23 07:44:20;;;;;;;4.53;2.55;;;;;;;-145.48;100.00;64539.38;6276362;28;20577;-89
2022/10/23 07:47:29;;;;;;;3.38;2.53;;;;;;;-145.48;100.00;64539.38;6235188;28;20037;-90
2022/10/23 07:50:36;;;;;;;8.52;2.80;;;;;;;-145.48;100.00;64539.38;6278080;28;20044;-90
2022/10/23 07:53:38;;;;;;;4.53;2.30;;;;;;;-145.48;100.00;64539.38;6266710;28;20144;-90
2022/10/23 07:56:51;;;;;;;6.45;2.50;;;;;;;-145.48;100.00;64539.38;6260791;28;20056;-90
2022/10/23 08:00:13;;;;;;;6.80;2.80;;;;;;;-145.48;100.00;64539.38;6282154;28;20051;-89
2022/10/23 08:03:15;;;;;;;6.07;2.85;;;;;;;-145.48;100.00;64539.38;6290804;28;20051;-90
2022/10/23 08:06:17;;;;;;;4.85;2.47;;;;;;;-145.48;100.00;64539.38;6281742;28;20048;-90
2022/10/23 08:09:20;;;;;;;5.70;2.78;;;;;;;-145.48;100.00;64539.38;6274793;28;20064;-90
2022/10/23 08:12:22;;;;;;;4.82;2.25;;;;;;;-145.48;100.00;64539.38;6329064;27;20094;-90
2022/10/23 08:15:24;;;;;;;7.07;2.42;;;;;;;-145.48;100.00;64539.38;6339270;28;20047;-90
2022/10/23 08:18:32;;;;;;;4.95;2.30;;;;;;;-145.48;100.00;64539.38;6333618;28;20120;-90
2022/10/23 08:21:34;;;;;;;3.95;2.50;;;;;;;-145.48;100.00;64539.38;6311965;28;20116;-90
2022/10/23 08:24:37;;;;;;;4.68;2.47;;;;;;;-145.48;100.00;64539.38;6335982;28;20516;-90
2022/10/23 08:27:39;;;;;;;5.40;2.38;;;;;;;-145.48;100.00;64539.38;6338628;28;20130;-90
2022/10/23 08:30:41;;;;;;;5.18;2.40;;;;;;;-145.48;100.00;64539.38;6339019;28;20070;-90
2022/10/23 08:33:43;;;;;;;4.30;2.15;;;;;;;-145.48;100.00;64539.38;6321354;28;20039;-90
2022/10/23 08:36:46;;;;;;;6.18;2.55;;;;;;;-145.48;100.00;64539.38;6331274;28;20516;-90
2022/10/23 08:39:48;;;;;;;5.25;2.20;;;;;;;-145.48;100.00;64539.38;6336876;28;20188;-90
2022/10/23 08:43:06;;;;;;;5.63;2.45;;;;;;;-145.48;100.00;64539.38;6338704;28;20449;-90
2022/10/23 08:46:17;;;;;;;3.70;2.22;;;;;;;-145.48;100.00;64539.38;6333592;28;20613;-90
2022/10/23 08:50:11;;;;;;;5.38;2.50;;;;;;;-145.48;100.00;64539.38;6257199;28;20163;-90
2022/10/23 08:53:19;;;;;;;9.90;2.38;;;;;;;-145.48;100.00;64539.38;6258317;28;20084;-90
2022/10/23 08:56:43;;;;;;;4.78;2.28;;;;;;;-145.48;100.00;64539.38;6256287;28;20063;-90
2022/10/23 08:59:59;;;;;;;4.43;2.00;;;;;;;-145.48;100.00;64539.38;6253790;28;20262;-91
2022/10/23 09:03:04;;;;;;;4.03;2.15;;;;;;;-145.48;100.00;64539.38;6263102;28;20044;-90
2022/10/23 09:06:36;;;;;;;2.90;2.00;;;;;;;-145.48;100.00;64539.38;6316969;28;20035;-90
2022/10/23 09:10:02;;;;;;;3.53;1.90;;;;;;;-145.48;100.00;64539.38;6335474;28;20039;-90
2022/10/23 09:13:29;;;;;;;5.38;2.17;;;;;;;-145.48;100.00;64539.38;6333222;28;20461;-90
2022/10/23 09:17:02;;;;;;;4.93;2.00;;;;;;;-145.48;100.00;64539.38;6330308;28;20031;-90
2022/10/23 09:20:17;;;;;;;4.80;2.00;;;;;;;-145.48;100.00;64539.38;6336001;28;20124;-90
2022/10/23 09:23:26;;;;;;;2.90;1.70;;;;;;;-145.48;100.00;64539.38;6331013;28;20531;-93
2022/10/23 09:26:29;;;;;;;3.92;1.60;;;;;;;-145.48;100.00;64539.38;6332950;28;20132;-90
2022/10/23 09:29:34;;;;;;;6.43;1.73;;;;;;;-145.48;100.00;64539.38;6338595;28;20048;-89
2022/10/23 09:32:37;;;;;;;5.25;1.70;;;;;;;-145.48;100.00;64539.38;6327512;28;20036;-91
2022/10/23 09:35:56;;;;;;;6.75;1.40;;;;;;;-145.48;100.00;64539.38;6337229;28;20173;-91
2022/10/23 09:38:59;;;;;;;5.50;1.85;;;;;;;-145.48;100.00;64539.38;6327631;28;20477;-91
2022/10/23 09:42:20;;;;;;;4.65;1.67;;;;;;;-145.48;100.00;64539.38;6324303;28;20165;-89
2022/10/23 09:45:25;;;;;;;5.13;1.77;;;;;;;-145.48;100.00;64539.38;6324750;28;20533;-91
2022/10/23 09:48:28;;;;;;;6.47;1.60;;;;;;;-145.48;100.00;64539.38;6323793;28;20043;-91
2022/10/23 09:51:30;;;;;;;2.55;1.55;;;;;;;-145.48;100.00;64539.38;6323253;28;20050;-91
2022/10/23 09:54:38;;;;;;;5.68;1.80;;;;;;;-145.48;100.00;64539.38;6337266;28;20047;-90
2022/10/23 09:57:42;;;;;;;4.35;1.60;;;;;;;-145.48;100.00;64539.38;6331732;28;20333;-91
2022/10/23 10:00:47;;;;;;;4.43;1.50;;;;;;;-145.48;100.00;64539.38;6333240;28;20115;-91
2022/10/23 10:04:12;;;;;;;4.05;1.58;;;;;;;-145.48;100.00;64539.38;6333092;28;20768;-91
2022/10/23 10:07:26;;;;;;;5.68;1.50;;;;;;;-145.48;100.00;64539.38;6332901;28;20035;-91
2022/10/23 10:10:47;;;;;;;3.05;1.58;;;;;;;-145.48;100.00;64539.38;6335074;28;20047;-91
2022/10/23 10:14:01;;;;;;;5.07;1.25;;;;;;;-145.48;100.00;64539.38;6332333;28;20047;-91
2022/10/23 10:17:18;;;;;;;2.47;1.58;;;;;;;-145.48;100.00;64539.38;6334268;28;20044;-91
2022/10/23 10:20:30;;;;;;;4.72;1.42;;;;;;;-145.48;100.00;64539.38;6329827;28;20181;-91
2022/10/23 10:23:52;;;;;;;2.92;1.70;;;;;;;-145.48;100.00;64539.38;6333705;28;20485;-91
2022/10/23 10:27:10;;;;;;;3.08;1.55;;;;;;;-145.48;100.00;64539.38;6338406;28;20039;-90
2022/10/23 10:30:21;;;;;;;5.45;1.52;;;;;;;-145.48;100.00;64539.38;6322385;28;20126;-90
2022/10/23 10:33:42;;;;;;;3.67;1.30;;;;;;;-145.48;100.00;64539.38;6336582;28;20044;-91
2022/10/23 10:37:11;;;;;;;2.60;1.58;;;;;;;-145.48;100.00;64539.38;6334463;28;20040;-91
2022/10/23 10:40:27;;;;;;;4.05;1.30;;;;;;;-145.48;100.00;64539.38;6329848;28;20066;-90
2022/10/23 10:43:52;;;;;;;2.67;1.40;;;;;;;-145.48;100.00;64539.38;6333061;28;20586;-91
2022/10/23 10:47:19;;;;;;;2.15;1.23;;;;;;;-145.48;100.00;64539.38;6331115;28;20799;-91
2022/10/23 10:50:54;;;;;;;3.05;1.60;;;;;;;-145.48;100.00;64539.38;6311375;28;20082;-91
2022/10/23 10:54:19;;;;;;;4.82;1.67;;;;;;;-145.48;100.00;64539.38;6330582;28;20572;-90
2022/10/23 10:57:32;;;;;;;1.67;1.17;;;;;;;-145.48;100.00;64539.38;6329657;28;20498;-90
2022/10/23 11:00:34;;;;;;;4.45;1.55;;;;;;;-145.48;100.00;64539.38;6327393;28;20059;-90
2022/10/23 11:03:45;;;;;;;4.20;1.52;;;;;;;-145.48;100.00;64539.38;6314993;28;20044;-90
2022/10/23 11:06:50;;;;;;;5.47;1.48;;;;;;;-145.48;100.00;64539.38;6329246;28;20189;-91
2022/10/23 11:09:54;;;;;;;4.22;1.40;;;;;;;-145.48;100.00;64539.38;6327583;28;20503;-91
2022/10/23 11:12:56;;;;;;;3.67;1.58;;;;;;;-145.48;100.00;64539.38;6329614;28;20043;-91
2022/10/23 11:16:20;;;;;;;7.20;1.58;;;;;;;-145.48;100.00;64539.38;6334560;28;20066;-91
2022/10/23 11:19:35;;;;;;;4.45;1.30;;;;;;;-145.48;100.00;64539.38;6323956;28;20036;-91
2022/10/23 11:23:07;;;;;;;4.90;1.45;;;;;;;-145.48;100.00;64539.38;6300722;28;20040;-91
2022/10/23 11:26:28;;;;;;;2.38;1.40;;;;;;;-145.48;100.00;64539.38;6330440;28;20044;-91
2022/10/23 11:29:41;;;;;;;2.92;1.10;;;;;;;-145.48;100.00;64539.38;6330127;28;20404;-91
2022/10/23 11:33:15;;;;;;;1.88;1.20;;;;;;;-145.48;100.00;64539.38;6327295;28;20043;-91
2022/10/23 11:36:39;;;;;;;3.30;1.30;;;;;;;-145.48;100.00;64539.38;6329165;28;20047;-90
2022/10/23 11:39:54;;;;;;;1.88;1.10;;;;;;;-145.48;100.00;64539.38;6253887;28;20112;-90
2022/10/23 11:42:56;;;;;;;1.63;1.10;;;;;;;-145.48;100.00;64539.38;6253116;28;20187;-91
2022/10/23 11:46:12;;;;;;;1.27;1.02;;;;;;;-145.48;100.00;64539.38;6252610;28;20127;-91
2022/10/23 11:49:20;;;;;;;4.57;1.48;;;;;;;-145.48;100.00;64539.38;6251235;28;20429;-91
2022/10/23 11:52:26;;;;;;;2.80;1.57;;;;;;;-145.48;100.00;64539.38;6246472;28;20079;-90
2022/10/23 11:55:30;;;;;;;3.55;1.33;;;;;;;-145.48;100.00;64539.38;6239213;28;20553;-90
2022/10/23 11:58:48;;;;;;;1.90;1.10;;;;;;;-145.48;100.00;64539.38;6249306;28;20128;-91
2022/10/23 12:01:53;;;;;;;4.43;1.40;;;;;;;-145.48;100.00;64539.38;6214732;28;21008;-91
2022/10/23 12:05:02;;;;;;;3.10;1.23;;;;;;;-145.48;100.00;64539.38;6253174;28;20049;-90
2022/10/23 12:08:08;;;;;;;2.42;1.30;;;;;;;-145.48;100.00;64539.38;6245114;28;20084;-90
2022/10/23 12:11:46;;;;;;;2.65;1.40;;;;;;;-145.48;100.00;64539.38;6234434;28;20061;-90
2022/10/23 12:14:50;;;;;;;1.98;1.27;;;;;;;-145.48;100.00;64539.38;6256497;28;20098;-90
2022/10/23 12:17:57;;;;;;;2.28;1.20;;;;;;;-145.48;100.00;64539.38;6319883;28;20048;-91
2022/10/23 12:21:17;;;;;;;6.38;1.40;;;;;;;-145.48;100.00;64539.38;6322363;28;20050;-90
2022/10/23 12:24:55;;;;;;;2.10;1.40;;;;;;;-145.48;100.00;64539.38;6328292;28;20046;-91
2022/10/23 12:28:34;;;;;;;3.00;1.55;;;;;;;-145.48;100.00;64539.38;6328209;28;20904;-91
2022/10/23 12:31:47;;;;;;;3.20;1.52;;;;;;;-145.48;100.00;64539.38;6330289;28;20055;-90
2022/10/23 12:35:24;;;;;;;4.47;1.50;;;;;;;-145.48;100.00;64539.38;6328839;28;20040;-90
2022/10/23 12:38:32;;;;;;;1.45;1.27;;;;;;;-145.48;100.00;64539.38;6272512;28;20509;-90
2022/10/23 12:41:37;;;;;;;3.15;1.30;;;;;;;-145.48;100.00;64539.38;6279330;28;20045;-90
2022/10/23 12:44:40;;;;;;;3.88;1.38;;;;;;;-145.48;100.00;64539.38;6266534;28;20470;-90
2022/10/23 12:47:45;;;;;;;2.38;1.33;;;;;;;-145.48;100.00;64539.38;6282987;28;20056;-90
2022/10/23 12:50:54;;;;;;;1.67;1.23;;;;;;;-145.48;100.00;64539.38;6265383;28;20037;-90
2022/10/23 12:54:00;;;;;;;10.48;1.50;;;;;;;-145.48;100.00;64539.38;6278343;28;20805;-91
2022/10/23 12:57:29;;;;;;;2.00;1.30;;;;;;;-145.48;100.00;64539.38;6265464;28;20075;-90
2022/10/23 13:00:31;;;;;;;2.83;1.25;;;;;;;-145.48;100.00;64539.38;6271826;28;20044;-90
2022/10/23 13:03:34;;;;;;;2.38;1.50;;;;;;;-145.48;100.00;64539.38;6281361;28;20049;-90
2022/10/23 13:06:41;;;;;;;2.53;1.30;;;;;;;-145.48;100.00;64539.38;6278868;28;20048;-91
2022/10/23 13:09:44;;;;;;;2.72;1.42;;;;;;;-145.48;100.00;64539.38;6264314;28;20099;-90
2022/10/23 13:13:05;;;;;;;3.05;1.10;;;;;;;-145.48;100.00;64539.38;6263995;28;20424;-91
2022/10/23 13:16:20;;;;;;;4.47;1.20;;;;;;;-145.48;100.00;64539.38;6327384;28;20055;-91
2022/10/23 13:19:24;;;;;;;2.95;0.98;;;;;;;-145.48;100.00;64539.38;6335618;27;20173;-91
2022/10/23 13:22:30;;;;;;;3.35;1.40;;;;;;;-145.48;100.00;64539.38;6333987;28;20044;-91
2022/10/23 13:25:38;;;;;;;3.55;1.25;;;;;;;-145.48;100.00;64539.38;6331927;28;20040;-91
2022/10/23 13:28:43;;;;;;;1.48;1.10;;;;;;;-145.48;100.00;64539.38;6312264;28;20241;-91
2022/10/23 13:31:48;;;;;;;2.70;1.20;;;;;;;-145.48;100.00;64539.38;6330611;28;20048;-91
2022/10/23 13:34:54;;;;;;;1.95;1.25;;;;;;;-145.48;100.00;64539.38;6334148;28;20036;-91
2022/10/23 13:38:29;;;;;;;1.55;1.00;;;;;;;-145.48;100.00;64539.38;6328481;28;20328;-91
2022/10/23 13:41:41;;;;;;;2.63;1.38;;;;;;;-145.48;100.00;64539.38;6310514;28;20487;-91
2022/10/23 13:44:42;;;;;;;2.55;1.30;;;;;;;-145.48;100.00;64539.38;6326034;28;20047;-91
2022/10/23 13:47:45;;;;;;;3.17;1.40;;;;;;;-145.48;100.00;64539.38;6333498;28;20088;-91
2022/10/23 13:50:47;;;;;;;2.45;1.45;;;;;;;-145.48;100.00;64539.38;6330732;28;20430;-91
2022/10/23 13:53:50;;;;;;;3.38;1.23;;;;;;;-145.48;100.00;64539.38;6329555;28;20090;-91
2022/10/23 13:56:53;;;;;;;2.13;1.48;;;;;;;-145.48;100.00;64539.38;6328789;28;20436;-91
2022/10/23 13:59:56;;;;;;;1.92;1.20;;;;;;;-145.48;100.00;64539.38;6311948;28;20775;-92
2022/10/23 14:02:58;;;;;;;1.77;1.17;;;;;;;-145.48;100.00;64539.38;6332273;28;20040;-91
2022/10/23 14:06:00;;;;;;;2.67;1.50;;;;;;;-145.48;100.00;64539.38;6315197;28;20086;-91
2022/10/23 14:09:08;;;;;;;1.38;1.15;;;;;;;-145.48;100.00;64539.38;6332700;28;20104;-91
2022/10/23 14:12:11;;;;;;;1.50;1.25;;;;;;;-145.48;100.00;64539.38;6332199;28;20035;-91
2022/10/23 14:15:16;;;;;;;2.97;1.45;;;;;;;-145.48;100.00;64539.38;6331795;28;20044;-91
2022/10/23 14:18:18;;;;;;;4.03;1.58;;;;;;;-145.48;100.00;64539.38;6331661;27;20182;-91
2022/10/23 14:21:24;;;;;;;4.28;1.38;;;;;;;-145.48;100.00;64539.38;6328519;28;20031;-91
2022/10/23 14:24:26;;;;;;;2.53;1.40;;;;;;;-145.48;100.00;64539.38;6313685;28;20039;-91